createdAt,value
2023-03-10T05:47:36.655Z,9.10
2023-03-10T05:50:05.466Z,9.00
2023-03-10T05:52:36.938Z,8.90
2023-03-10T05:55:05.274Z,8.90
2023-03-10T05:57:33.263Z,8.80
2023-03-10T06:00:01.295Z,8.70
2023-03-10T06:02:29.253Z,8.50
2023-03-10T06:04:58.592Z,8.30
2023-03-10T06:07:26.612Z,8.20
2023-03-10T06:09:54.920Z,8.20
2023-03-10T06:12:23.008Z,8.20
2023-03-10T06:14:50.886Z,8.20
2023-03-10T06:17:19.728Z,8.10
2023-03-10T06:19:47.816Z,8.10
2023-03-10T06:22:17.095Z,8.00
2023-03-10T06:24:45.753Z,7.90
2023-03-10T06:27:13.681Z,7.90
2023-03-10T06:29:41.577Z,7.90
2023-03-10T06:32:09.697Z,7.80
2023-03-10T06:34:37.679Z,7.80
2023-03-10T06:37:05.580Z,7.80
2023-03-10T06:39:35.532Z,7.90
2023-03-10T06:42:03.460Z,7.90
2023-03-10T06:44:31.449Z,8.00
2023-03-10T06:46:59.534Z,8.20
2023-03-10T06:49:30.773Z,8.40
2023-03-10T06:51:59.091Z,8.60
2023-03-10T06:54:27.057Z,8.70
2023-03-10T06:56:56.309Z,8.80
2023-03-10T06:59:24.524Z,8.90
2023-03-10T07:01:52.494Z,9.00
2023-03-10T07:04:20.460Z,9.10
2023-03-10T07:06:48.496Z,9.30
2023-03-10T07:09:16.385Z,9.40
2023-03-10T07:11:44.324Z,9.60
2023-03-10T07:14:13.668Z,9.70
2023-03-10T07:16:41.666Z,9.70
2023-03-10T07:19:09.654Z,9.70
2023-03-10T07:21:37.636Z,9.70
2023-03-10T07:24:06.208Z,9.70
2023-03-10T07:26:34.313Z,9.70
2023-03-10T07:29:02.622Z,9.70
2023-03-10T07:31:32.734Z,9.80
2023-03-10T07:34:01.934Z,9.90
2023-03-10T07:36:30.250Z,9.80
2023-03-10T07:38:58.309Z,9.90
2023-03-10T07:41:26.427Z,9.90
2023-03-10T07:43:55.724Z,10.00
2023-03-10T15:02:35.708Z,8.30
2023-03-10T15:05:03.738Z,8.20
2023-03-10T15:07:31.789Z,8.10
2023-03-10T15:10:10.556Z,8.00
2023-03-10T15:12:40.677Z,7.90
2023-03-10T15:15:16.721Z,7.80
2023-03-10T15:17:46.593Z,7.70
2023-03-10T15:20:18.112Z,7.60
2023-03-10T15:22:46.629Z,7.50
2023-03-10T15:25:16.346Z,7.40
2023-03-10T15:27:44.737Z,7.30
2023-03-10T15:30:18.727Z,7.10
2023-03-10T15:32:48.086Z,6.90
2023-03-10T15:35:17.033Z,6.80
2023-03-10T15:37:45.862Z,6.70
2023-03-10T15:40:17.173Z,6.70
2023-03-10T15:42:45.392Z,6.80
2023-03-10T15:45:14.075Z,6.70
2023-03-10T15:47:42.093Z,6.70
2023-03-10T15:50:13.544Z,6.60
2023-03-10T15:52:45.970Z,6.50
2023-03-10T15:55:14.928Z,6.60
2023-03-10T15:57:43.042Z,6.70
2023-03-10T16:00:12.466Z,6.80
2023-03-10T16:02:40.437Z,7.00
2023-03-10T16:05:09.115Z,7.00
2023-03-10T16:07:38.803Z,7.00
2023-03-10T16:10:07.672Z,7.00
2023-03-10T16:12:35.842Z,7.00
2023-03-10T16:15:03.936Z,6.90
2023-03-10T16:17:32.238Z,6.90
2023-03-10T16:20:02.206Z,6.90
2023-03-10T16:22:30.309Z,6.90
2023-03-10T16:24:59.638Z,7.00
2023-03-10T16:27:27.797Z,7.00
2023-03-10T16:29:55.985Z,7.00
2023-03-10T16:32:24.031Z,7.10
2023-03-10T16:34:54.478Z,7.10
2023-03-10T16:37:22.405Z,6.90
2023-03-10T16:39:53.519Z,6.70
2023-03-10T16:42:23.356Z,6.50
2023-03-10T16:44:51.767Z,6.30
2023-03-10T16:47:19.945Z,6.20
2023-03-10T16:49:47.881Z,6.10
2023-03-10T16:52:15.830Z,6.00
2023-03-10T16:54:44.925Z,6.00
2023-03-10T16:57:12.964Z,6.00
2023-03-10T16:59:44.765Z,6.00
2023-03-10T17:02:16.105Z,5.90
2023-03-10T17:04:45.217Z,5.90
2023-03-10T17:07:14.218Z,5.90
2023-03-10T17:09:42.246Z,5.80
2023-03-10T17:12:10.474Z,5.80
2023-03-10T17:14:38.449Z,5.70
2023-03-10T17:17:08.239Z,5.70
2023-03-10T17:19:37.537Z,5.70
2023-03-10T17:22:05.481Z,5.70
2023-03-10T17:24:33.423Z,5.70
2023-03-10T17:27:01.346Z,5.80
2023-03-10T17:29:29.328Z,5.80
2023-03-10T17:31:57.317Z,5.80
2023-03-10T17:34:29.264Z,5.80
2023-03-10T17:36:57.212Z,5.80
2023-03-10T17:39:27.562Z,5.80
2023-03-10T17:41:55.855Z,5.70
2023-03-10T17:44:23.812Z,5.70
2023-03-10T17:46:52.931Z,5.60
2023-03-10T17:49:20.893Z,5.40
2023-03-10T17:51:50.491Z,5.20
2023-03-10T17:54:21.583Z,5.00
2023-03-10T17:56:50.662Z,4.90
2023-03-10T17:59:18.775Z,4.90
2023-03-10T18:01:47.142Z,5.00
2023-03-10T18:04:15.059Z,5.00
2023-03-10T18:06:43.755Z,5.00
2023-03-10T18:09:15.649Z,5.00
2023-03-10T18:11:43.631Z,5.10
2023-03-10T18:14:11.721Z,5.20
2023-03-10T18:16:41.134Z,5.30
2023-03-10T18:19:10.978Z,5.30
2023-03-10T18:21:39.110Z,5.40
2023-03-10T18:24:08.337Z,5.40
2023-03-10T18:26:38.222Z,5.40
2023-03-10T18:29:06.173Z,5.50
2023-03-10T18:31:35.395Z,5.50
2023-03-10T18:34:03.420Z,5.50
2023-03-10T18:36:32.990Z,5.30
2023-03-10T18:39:02.353Z,5.30
2023-03-10T18:41:30.903Z,5.20
2023-03-10T18:44:01.049Z,4.90
2023-03-10T18:46:29.138Z,4.60
2023-03-10T18:48:57.096Z,4.50
2023-03-10T18:51:26.362Z,4.50
2023-03-10T18:53:55.248Z,4.40
2023-03-10T18:56:26.182Z,4.40
2023-03-10T18:58:54.307Z,4.40
2023-03-10T19:01:23.677Z,4.40
2023-03-10T19:03:51.656Z,4.40
2023-03-10T19:06:20.032Z,4.50
2023-03-10T19:08:48.068Z,4.50
2023-03-10T19:11:16.098Z,4.60
2023-03-10T19:13:45.054Z,4.60
2023-03-10T19:16:13.384Z,4.30
2023-03-10T19:18:42.727Z,4.10
2023-03-10T19:21:12.958Z,4.00
2023-03-10T19:23:41.546Z,3.90
2023-03-10T19:26:09.952Z,3.70
2023-03-10T19:28:38.794Z,3.50
2023-03-10T19:31:10.685Z,3.30
2023-03-10T19:33:39.801Z,3.20
2023-03-10T19:36:12.661Z,3.20
2023-03-10T19:38:42.565Z,3.20
2023-03-10T19:41:13.767Z,3.20
2023-03-10T19:43:41.766Z,3.20
2023-03-10T19:46:12.520Z,3.10
2023-03-10T19:48:40.727Z,3.10
2023-03-10T19:51:17.131Z,3.30
2023-03-10T19:53:45.092Z,3.30
2023-03-10T19:56:16.443Z,3.30
2023-03-10T19:58:44.437Z,3.30
2023-03-10T20:01:13.967Z,3.40
2023-03-10T20:03:42.334Z,3.40
2023-03-10T20:06:11.755Z,3.40
2023-03-10T20:08:39.674Z,3.40
2023-03-10T20:11:11.754Z,3.40
2023-03-10T20:13:39.811Z,3.50
2023-03-10T20:16:08.148Z,3.50
2023-03-10T20:18:36.274Z,3.60
2023-03-10T20:21:04.530Z,3.70
2023-03-10T20:23:34.666Z,3.80
2023-03-10T20:26:03.286Z,3.80
2023-03-10T20:28:31.657Z,3.80
2023-03-10T20:30:59.568Z,3.80
2023-03-10T20:33:28.032Z,3.80
2023-03-10T20:35:56.278Z,3.70
2023-03-10T20:38:24.368Z,3.60
2023-03-10T20:40:53.676Z,3.60
2023-03-10T20:43:21.645Z,3.50
2023-03-10T20:45:52.840Z,3.50
2023-03-10T20:48:20.796Z,3.50
2023-03-10T20:50:54.734Z,3.40
2023-03-10T20:53:22.653Z,3.40
2023-03-10T20:55:50.529Z,3.40
2023-03-10T20:58:19.920Z,3.40
